Flight Track Log - Related Links

Times and Time Zones

All times are in EDT time to prevent confusion due to time zone crossing. See the JBU1502 flight status page for this flight to view local times or setup timezone preferences in your user account.

Time Position Orientation Groundspeed Altitude Reporting Facility
EDT Latitude Longitude Course Direction KTS MPH feet Rate Location/Type
Tue 06:14:00 AM 26.1589 -79.7931 48° Northeast  Level FlightAware Approximate
Tue 06:15:00 AM 26.2280 -79.6867 56° Northeast  Level FlightAware Approximate
Tue 06:16:00 AM 26.3001 -79.5832 56° Northeast  Level FlightAware Approximate
Tue 06:16:30 AM 26.2060 -79.7405 54° Northeast 351 404 11,700  Level FlightAware ADS-B (KEYW)
Tue 06:17:13 AM 26.2461 -79.6807 53° Northeast 368 423 13,300 2,229 Climbing FlightAware ADS-B (KEYW)
Tue 06:17:40 AM 26.2772 -79.6347 50° Northeast 378 435 14,300 2,053 Climbing FlightAware ADS-B (KEYW)
Tue 06:18:29 AM 26.3475 -79.5777 33° Northeast 389 448 15,900 1,950 Climbing FlightAware ADS-B (KEYW)
Tue 06:19:00 AM 26.3968 -79.5418 33° Northeast 395 455 16,900 1,935 Climbing FlightAware ADS-B (KEYW)
Tue 06:19:31 AM 26.4446 -79.5067 33° Northeast 397 457 17,900 1,770 Climbing FlightAware ADS-B (KEYW)
Tue 06:20:01 AM 26.4905 -79.4730 33° Northeast 407 468 18,700 1,655 Climbing FlightAware ADS-B (KEYW)
Tue 06:20:29 AM 26.5352 -79.4402 33° Northeast 412 474 19,500 1,672 Climbing FlightAware ADS-B (KEYW)
Tue 06:21:02 AM 26.5870 -79.4022 33° Northeast 417 480 20,400 1,429 Climbing FlightAware ADS-B (KEYW)
Tue 06:21:32 AM 26.6377 -79.3650 33° Northeast 422 486 21,000 563 Climbing FlightAware ADS-B (KEYW)
Tue 06:22:06 AM 26.6673 -79.3432 34° Northeast 421 484 21,000 295 Level FlightAware ADS-B
Tue 06:22:33 AM 26.7364 -79.2922 33° Northeast 423 487 21,300 712 Climbing FlightAware ADS-B (KEYW)
Tue 06:23:05 AM 26.7644 -79.2714 34° Northeast 425 489 21,700 955 Climbing FlightAware ADS-B
Tue 06:23:17 AM 26.7861 -79.2554 33° Northeast 432 497 22,000 1,674 Climbing FlightAware ADS-B (KEYW)
Tue 06:23:48 AM 26.8608 -79.2002 33° Northeast 436 502 22,900 1,263 Climbing FlightAware ADS-B (KEYW)
Tue 06:24:33 AM 26.9059 -79.1668 34° Northeast 438 504 23,600 1,475 Climbing FlightAware ADS-B
Tue 06:24:49 AM 26.9650 -79.1231 33° Northeast 440 506 24,400 1,543 Climbing FlightAware ADS-B (KEYW)
Tue 06:25:08 AM 26.9707 -79.1188 34° Northeast 441 507 24,500 1,200 Climbing FlightAware ADS-B
Tue 06:25:34 AM 27.0413 -79.0665 33° Northeast 447 514 25,300 1,043 Climbing FlightAware ADS-B (KEYW)
Tue 06:27:26 AM 27.2121 -78.9388 34° Northeast 465 535 26,900 908 Climbing FlightAware ADS-B
Tue 06:28:06 AM 27.2778 -78.8824 41° Northeast 470 541 27,600 975 Climbing FlightAware ADS-B
Tue 06:28:46 AM 27.3439 -78.8174 41° Northeast 477 549 28,200 975 Climbing FlightAware ADS-B
Tue 06:29:26 AM 27.4129 -78.7507 41° Northeast 478 550 28,900 1,023 Climbing FlightAware ADS-B
Tue 06:30:14 AM 27.4957 -78.6714 41° Northeast 482 555 29,700 1,246 Climbing FlightAware ADS-B
Tue 06:31:36 AM 27.6323 -78.5415 40° Northeast 469 540 31,600 853 Climbing FlightAware ADS-B
Tue 06:34:06 AM 27.8757 -78.3005 41° Northeast 463 533 33,000 457 Climbing FlightAware ADS-B
Tue 06:34:40 AM 27.9299 -78.2468 41° Northeast 466 536 33,000  Level FlightAware ADS-B
Tue 06:36:07 AM 28.0705 -78.1059 42° Northeast 465 535 33,000 -42 Level FlightAware ADS-B
Tue 06:37:03 AM 28.1414 -78.0353 42° Northeast 463 533 32,900 -52 Descending Miami Center
Tue 06:38:03 AM 28.2381 -77.9372 42° Northeast 465 535 32,900  Level Miami Center
Tue 06:39:04 AM 28.3350 -77.8403 41° Northeast 465 535 32,900  Level Miami Center
Tue 06:40:04 AM 28.4325 -77.7436 41° Northeast 465 535 32,900  Level Miami Center
Tue 06:41:05 AM 28.5444 -77.6722 29° Northeast 456 525 32,900  Level Miami Center
Tue 06:42:05 AM 28.6919 -77.6317 14° North 453 521 32,900  Level Miami Center
Tue 06:43:06 AM 28.8172 -77.6272 North 451 519 32,900  Level Miami Center
Tue 06:44:06 AM 28.9436 -77.6383 356° North 452 520 32,900  Level Miami Center
Tue 06:45:07 AM 29.0700 -77.6469 357° North 452 520 32,900  Level Miami Center
Tue 06:46:07 AM 29.1953 -77.6553 357° North 452 520 32,900  Level Miami Center
Tue 06:47:08 AM 29.3211 -77.6633 357° North 452 520 32,900  Level Miami Center
Tue 06:48:08 AM 29.4478 -77.6694 358° North 452 520 32,900  Level Miami Center
Tue 06:49:09 AM 29.5558 -77.7578 325° Northwest 464 534 32,900  Level Miami Center
Tue 06:50:09 AM 29.6500 -77.8561 318° Northwest 463 533 32,900  Level Miami Center
Tue 06:51:10 AM 29.7372 -77.9622 313° West 463 533 32,900  Level Miami Center
Tue 06:52:10 AM 29.8239 -78.0658 314° West 456 525 32,900  Level Miami Center
Tue 06:53:11 AM 29.9464 -78.0967 348° North 452 520 32,900  Level Miami Center
Tue 06:54:11 AM 30.0686 -78.0878 North 450 518 32,900  Level Miami Center
Tue 06:55:12 AM 30.2022 -78.0769 North 465 535 32,900  Level Miami Center
Tue 06:56:12 AM 30.3239 -78.0883 355° North 456 525 32,900  Level Miami Center
Tue 06:57:13 AM 30.4517 -78.0997 356° North 455 524 32,900  Level Miami Center
Tue 06:58:14 AM 30.5806 -78.0956 North 461 531 32,900  Level Miami Center
Tue 06:59:14 AM 30.7097 -78.0925 North 461 531 32,900  Level Miami Center
Tue 07:00:15 AM 30.8414 -78.0903 North 470 541 32,900  Level Miami Center
Tue 07:01:15 AM 30.9686 -78.0556 13° North 471 542 32,900  Level Miami Center
Tue 07:02:16 AM 31.0944 -78.0144 16° North 471 542 32,900  Level Miami Center
Tue 07:03:17 AM 31.2178 -77.9717 17° North 471 542 32,900  Level Miami Center
Tue 07:04:17 AM 31.3436 -77.9297 16° North 469 540 32,900  Level Miami Center
Tue 07:05:18 AM 31.4942 -77.8789 16° North 470 541 32,900  Level Miami Center
Tue 07:06:18 AM 31.6192 -77.8353 17° North 470 541 32,900  Level Miami Center
Tue 07:07:39 AM 31.7856 -77.7775 16° North 472 543 32,900  Level Jacksonville Center
Tue 07:08:39 AM 31.9111 -77.7292 18° North 467 537 32,900  Level Jacksonville Center
Tue 07:09:39 AM 32.0261 -77.6883 17° North 472 543 32,900  Level Jacksonville Center
Tue 07:10:39 AM 32.1642 -77.6436 15° North 472 543 32,900  Level Jacksonville Center
Tue 07:11:39 AM 32.2794 -77.6050 16° North 472 543 32,900  Level Jacksonville Center
Tue 07:12:39 AM 32.4069 -77.5583 17° North 472 543 32,900  Level Jacksonville Center
Tue 07:13:39 AM 32.5322 -77.5139 17° North 472 543 32,900  Level Jacksonville Center
Tue 07:14:39 AM 32.6578 -77.4719 16° North 472 543 32,900  Level Jacksonville Center
Tue 07:15:39 AM 32.7833 -77.4275 17° North 472 543 32,900  Level Jacksonville Center
Tue 07:16:39 AM 32.9128 -77.3825 16° North 472 543 32,900  Level Jacksonville Center
Tue 07:17:12 AM 32.9647 -77.3675 14° North 474 545 32,900  Level Washington Center
Tue 07:18:13 AM 33.1164 -77.3144 16° North 474 545 32,900  Level Washington Center
Tue 07:19:14 AM 33.2408 -77.2692 17° North 474 545 32,900  Level Washington Center
Tue 07:20:17 AM 33.3650 -77.2261 16° North 472 543 32,900  Level Washington Center
Tue 07:21:20 AM 33.4900 -77.1811 17° North 472 543 32,900  Level Washington Center
Tue 07:22:21 AM 33.6136 -77.1369 17° North 471 542 32,900  Level Washington Center
Tue 07:23:21 AM 33.7622 -77.0844 16° North 469 540 32,900  Level Washington Center
Tue 07:24:25 AM 33.8867 -77.0400 17° North 469 540 32,900  Level Washington Center
Tue 07:25:26 AM 34.0111 -76.9958 16° North 469 540 32,900  Level Washington Center
Tue 07:26:28 AM 34.1358 -76.9503 17° North 469 540 32,900  Level Washington Center
Tue 07:27:29 AM 34.2592 -76.9064 16° North 469 540 32,900  Level Washington Center
Tue 07:28:33 AM 34.4089 -76.8517 17° North 469 540 32,900  Level Washington Center
Tue 07:29:33 AM 34.5325 -76.8061 17° North 468 539 32,900  Level Washington Center
Tue 07:30:37 AM 34.6586 -76.7611 16° North 470 541 32,900  Level Washington Center
Tue 07:31:38 AM 34.7839 -76.7150 17° North 470 541 32,900  Level Washington Center
Tue 07:32:41 AM 34.9097 -76.6700 16° North 471 542 32,900 15 Level Washington Center
Tue 07:38:18 AM 35.6428 -76.3980 16° North 472 543 33,000 16 Climbing FlightAware ADS-B
Tue 07:39:02 AM 35.7336 -76.3639 17° North 470 541 33,000  Level FlightAware ADS-B
Tue 07:39:45 AM 35.8249 -76.3296 17° North 473 544 33,000  Level FlightAware ADS-B
Tue 07:40:25 AM 35.9080 -76.2983 17° North 472 543 33,000  Level FlightAware ADS-B
Tue 07:42:31 AM 36.1691 -76.1995 17° North 469 540 33,000  Level FlightAware ADS-B
Tue 07:43:18 AM 36.2674 -76.1621 17° North 467 537 33,000  Level FlightAware ADS-B
Tue 07:44:06 AM 36.3662 -76.1243 17° North 463 533 33,000  Level FlightAware ADS-B
Tue 07:45:44 AM 36.5675 -76.0473 17° North 460 529 33,000  Level FlightAware ADS-B
Tue 07:47:03 AM 36.7272 -75.9859 17° North 459 528 33,000  Level FlightAware ADS-B
Tue 07:47:51 AM 36.8265 -75.9477 17° North 463 533 33,000  Level FlightAware ADS-B
Tue 07:48:55 AM 36.9554 -75.8978 17° North 463 533 33,000  Level FlightAware ADS-B
Tue 07:52:54 AM 37.4392 -75.7089 17° North 461 531 33,000  Level FlightAware ADS-B
Tue 07:53:46 AM 37.5338 -75.6715 17° North 457 526 33,000  Level FlightAware ADS-B
Tue 07:54:25 AM 37.6211 -75.6373 17° North 459 528 33,000  Level FlightAware ADS-B
Tue 07:54:58 AM 37.6851 -75.6120 18° North 458 527 33,000  Level FlightAware ADS-B
Tue 07:55:45 AM 37.7841 -75.5726 17° North 452 520 33,000  Level FlightAware ADS-B
Tue 07:56:27 AM 37.8692 -75.5389 17° North 450 518 33,000  Level FlightAware ADS-B
Tue 07:57:04 AM 37.9413 -75.5101 17° North 452 520 33,000  Level FlightAware ADS-B
Tue 07:57:46 AM 38.0035 -75.4852 18° North 454 522 33,000  Level FlightAware ADS-B
Tue 07:58:26 AM 38.0995 -75.4364 27° Northeast 457 526 33,000  Level FlightAware ADS-B
Tue 07:59:03 AM 38.1691 -75.3922 26° Northeast 455 524 33,000  Level FlightAware ADS-B
Tue 07:59:45 AM 38.2486 -75.3428 26° Northeast 456 525 33,000  Level FlightAware ADS-B
Tue 08:00:25 AM 38.3220 -75.2965 27° Northeast 455 524 33,000  Level FlightAware ADS-B
Tue 08:01:06 AM 38.4034 -75.2449 27° Northeast 455 524 33,000  Level FlightAware ADS-B
Tue 08:01:45 AM 38.4781 -75.1973 27° Northeast 455 524 33,000  Level FlightAware ADS-B
Tue 08:02:26 AM 38.5075 -75.1786 27° Northeast 456 525 33,000  Level FlightAware ADS-B
Tue 08:04:10 AM 38.7533 -75.0214 27° Northeast 457 526 33,000  Level FlightAware ADS-B
Tue 08:05:10 AM 38.8664 -74.9486 27° Northeast 460 529 33,000 -450 Level FlightAware ADS-B
Tue 08:06:10 AM 38.9806 -74.8749 27° Northeast 458 527 32,100 -1,400 Descending FlightAware ADS-B
Tue 08:07:10 AM 39.0190 -74.8501 27° Northeast 452 520 30,200 -2,148 Descending FlightAware ADS-B
Tue 08:09:06 AM 39.2754 -74.6061 40° Northeast 439 505 25,800 -2,188 Descending FlightAware ADS-B (KPHL)
Tue 08:10:11 AM 39.3631 -74.5113 40° Northeast 434 499 23,600 -2,250 Descending FlightAware ADS-B (KPHL)
Tue 08:10:58 AM 39.4026 -74.4683 40° Northeast 426 490 21,600 -2,016 Descending FlightAware ADS-B (KPHL)
Tue 08:12:16 AM 39.5591 -74.2971 40° Northeast 407 468 19,400 -1,478 Descending FlightAware ADS-B (KPHL)
Tue 08:13:16 AM 39.6460 -74.2018 40° Northeast 395 455 18,200 -1,636 Descending FlightAware ADS-B (KPHL)
Tue 08:14:17 AM 39.7316 -74.1075 41° Northeast 384 442 16,100 -1,820 Descending FlightAware ADS-B (KPHL)
Tue 08:15:18 AM 39.8047 -74.0267 41° Northeast 358 412 14,500 -1,463 Descending FlightAware ADS-B (KPHL)
Tue 08:16:20 AM 39.8890 -73.9523 28° Northeast 350 403 13,100 -1,463 Descending FlightAware ADS-B (KPHL)
Tue 08:17:21 AM 39.9686 -73.8962 29° Northeast 341 392 11,500 -1,340 Descending FlightAware ADS-B (KPHL)
Tue 08:17:54 AM 40.0211 -73.8636 29° Northeast 337 388 11,000 -326 Descending New York Center
Tue 08:18:53 AM 40.0953 -73.8100 29° Northeast 315 362 11,000 -64 Level New York Center
Tue 08:19:28 AM 40.1333 -73.7833 28° Northeast 300 345 10,900 -1,074 Descending New York TRACON
Tue 08:20:28 AM 40.2000 -73.7333 30° Northeast 294 338 9,300 -1,800 Descending New York TRACON
Tue 08:21:28 AM 40.2833 -73.7333 360° North 281 323 7,300 -1,650 Descending New York TRACON
Tue 08:22:28 AM 40.3333 -73.8000 315° West 270 311 6,000 -1,053 Descending New York TRACON
Tue 08:23:22 AM 40.3833 -73.8667 315° West 270 311 5,300 -1,100 Descending New York TRACON
Tue 08:24:28 AM 40.4333 -73.9333 315° West 257 296 3,800 -1,050 Descending New York TRACON
Tue 08:25:22 AM 40.4833 -73.9000 27° Northeast 212 244 3,200 -789 Descending New York TRACON
Tue 08:26:22 AM 40.5333 -73.8500 37° Northeast 206 237 2,300 -952 Descending New York TRACON
Tue 08:27:28 AM 40.5667 -73.8167 37° Northeast 172 198 1,200 -857 Descending New York TRACON
Tue 08:28:28 AM 40.6000 -73.7833 37° Northeast 134 154 500 -700 Descending New York TRACON
Tue 08:31:00 AM 40.6348 -73.7636 237° Southwest  Level FlightAware Approximate

Login

Don't have an account? Register now (free) for customized features, flight alerts, and more!